METAR Data
IDs: Format: Raw Decoded Include TAF

Data at: 0708 UTC 28 Sep 2022

EGBB 280650Z 30009KT 9999 FEW007 08/07 Q1000

EGBJ 280650Z 00000KT 9999 FEW020 09/07 Q1001

EGVN 280650Z 24002KT CAVOK 07/06 Q1001 NOSIG RMK BLU BLU

EGTK 280650Z VRB03KT 9999 FEW048 06/06 Q1000

EGWC 280650Z 00000KT 9999 MIFG FEW060 05/05 Q1001 RMK BLU

EGTC 280650Z 28005KT 2000 BR FEW002 SCT049 06/06 Q1000

EGNX 280650Z 30008KT 9999 SCT044 05/05 Q1000